sensor_id;sensor_type;location;lat;lon;timestamp;temperature;humidity
38910;DHT22;24676;51.360;12.354;2022-08-01T00:01:48;20.30;99.90
38910;DHT22;24676;51.360;12.354;2022-08-01T00:04:32;20.30;99.90
38910;DHT22;24676;51.360;12.354;2022-08-01T00:07:17;20.30;99.90
38910;DHT22;24676;51.360;12.354;2022-08-01T00:10:02;20.30;99.90
38910;DHT22;24676;51.360;12.354;2022-08-01T00:12:46;20.30;99.90
38910;DHT22;24676;51.360;12.354;2022-08-01T00:15:30;20.30;99.90
38910;DHT22;24676;51.360;12.354;2022-08-01T00:18:16;20.30;99.90
38910;DHT22;24676;51.360;12.354;2022-08-01T00:21:00;20.30;99.90
38910;DHT22;24676;51.360;12.354;2022-08-01T00:23:44;20.30;99.90
38910;DHT22;24676;51.360;12.354;2022-08-01T00:26:32;20.30;99.90
38910;DHT22;24676;51.360;12.354;2022-08-01T00:29:16;20.30;99.90
38910;DHT22;24676;51.360;12.354;2022-08-01T00:32:00;20.30;99.90
38910;DHT22;24676;51.360;12.354;2022-08-01T00:34:45;20.30;99.90
38910;DHT22;24676;51.360;12.354;2022-08-01T00:37:29;20.30;99.90
38910;DHT22;24676;51.360;12.354;2022-08-01T00:40:13;20.30;99.90
38910;DHT22;24676;51.360;12.354;2022-08-01T00:42:57;20.30;99.90
38910;DHT22;24676;51.360;12.354;2022-08-01T00:45:41;20.30;99.90
38910;DHT22;24676;51.360;12.354;2022-08-01T00:48:25;20.30;99.90
38910;DHT22;24676;51.360;12.354;2022-08-01T00:51:10;20.30;99.90
38910;DHT22;24676;51.360;12.354;2022-08-01T00:53:54;20.30;99.90
38910;DHT22;24676;51.360;12.354;2022-08-01T00:56:38;20.20;99.90
38910;DHT22;24676;51.360;12.354;2022-08-01T00:59:22;20.20;99.90
38910;DHT22;24676;51.360;12.354;2022-08-01T01:02:06;20.20;99.90
38910;DHT22;24676;51.360;12.354;2022-08-01T01:04:51;20.10;99.90
38910;DHT22;24676;51.360;12.354;2022-08-01T01:07:54;20.00;99.90
38910;DHT22;24676;51.360;12.354;2022-08-01T01:10:41;20.00;99.90
38910;DHT22;24676;51.360;12.354;2022-08-01T01:16:15;20.00;99.90
38910;DHT22;24676;51.360;12.354;2022-08-01T01:19:01;20.00;99.90
38910;DHT22;24676;51.360;12.354;2022-08-01T01:21:57;20.00;99.90
38910;DHT22;24676;51.360;12.354;2022-08-01T01:30:38;20.00;99.90
38910;DHT22;24676;51.360;12.354;2022-08-01T01:33:23;20.10;99.90
38910;DHT22;24676;51.360;12.354;2022-08-01T01:36:09;20.10;99.90
38910;DHT22;24676;51.360;12.354;2022-08-01T01:38:55;20.20;99.90
38910;DHT22;24676;51.360;12.354;2022-08-01T01:41:40;20.20;99.90
38910;DHT22;24676;51.360;12.354;2022-08-01T01:44:25;20.30;99.90
38910;DHT22;24676;51.360;12.354;2022-08-01T01:47:11;20.30;99.90
38910;DHT22;24676;51.360;12.354;2022-08-01T01:49:56;20.30;99.90
38910;DHT22;24676;51.360;12.354;2022-08-01T01:52:42;20.30;99.90
38910;DHT22;24676;51.360;12.354;2022-08-01T01:55:27;20.30;99.90
38910;DHT22;24676;51.360;12.354;2022-08-01T01:58:12;20.30;99.90
38910;DHT22;24676;51.360;12.354;2022-08-01T02:00:57;20.30;99.90
38910;DHT22;24676;51.360;12.354;2022-08-01T02:03:42;20.30;99.90
38910;DHT22;24676;51.360;12.354;2022-08-01T02:06:27;20.30;99.90
38910;DHT22;24676;51.360;12.354;2022-08-01T02:09:11;20.30;99.90
38910;DHT22;24676;51.360;12.354;2022-08-01T02:11:58;20.30;99.90
38910;DHT22;24676;51.360;12.354;2022-08-01T02:14:42;20.30;99.90
38910;DHT22;24676;51.360;12.354;2022-08-01T02:17:28;20.30;99.90
38910;DHT22;24676;51.360;12.354;2022-08-01T02:20:13;20.20;99.90
38910;DHT22;24676;51.360;12.354;2022-08-01T02:23:00;20.10;99.90
38910;DHT22;24676;51.360;12.354;2022-08-01T02:25:46;20.10;99.90
38910;DHT22;24676;51.360;12.354;2022-08-01T02:28:33;20.00;99.90
38910;DHT22;24676;51.360;12.354;2022-08-01T02:31:19;19.90;99.90
38910;DHT22;24676;51.360;12.354;2022-08-01T02:34:05;19.90;99.90
38910;DHT22;24676;51.360;12.354;2022-08-01T02:36:50;19.90;99.90
38910;DHT22;24676;51.360;12.354;2022-08-01T02:39:35;19.90;99.90
38910;DHT22;24676;51.360;12.354;2022-08-01T02:42:19;19.90;99.90
38910;DHT22;24676;51.360;12.354;2022-08-01T02:45:04;19.90;99.90
38910;DHT22;24676;51.360;12.354;2022-08-01T02:47:51;19.80;99.90
38910;DHT22;24676;51.360;12.354;2022-08-01T02:50:35;19.80;99.90
38910;DHT22;24676;51.360;12.354;2022-08-01T02:53:20;19.80;99.90
38910;DHT22;24676;51.360;12.354;2022-08-01T02:56:05;19.80;99.90
38910;DHT22;24676;51.360;12.354;2022-08-01T02:58:49;19.80;99.90
38910;DHT22;24676;51.360;12.354;2022-08-01T03:01:34;19.80;99.90
38910;DHT22;24676;51.360;12.354;2022-08-01T03:04:19;19.80;99.90
38910;DHT22;24676;51.360;12.354;2022-08-01T03:07:04;19.80;99.90
38910;DHT22;24676;51.360;12.354;2022-08-01T03:09:49;19.80;99.90
38910;DHT22;24676;51.360;12.354;2022-08-01T03:12:34;19.80;99.90
38910;DHT22;24676;51.360;12.354;2022-08-01T03:15:20;19.80;99.90
38910;DHT22;24676;51.360;12.354;2022-08-01T03:18:07;19.80;99.90
38910;DHT22;24676;51.360;12.354;2022-08-01T03:20:52;19.80;99.90
38910;DHT22;24676;51.360;12.354;2022-08-01T03:23:37;19.70;99.90
38910;DHT22;24676;51.360;12.354;2022-08-01T03:26:23;19.70;99.90
38910;DHT22;24676;51.360;12.354;2022-08-01T03:29:10;19.70;99.90
38910;DHT22;24676;51.360;12.354;2022-08-01T03:31:56;19.70;99.90
38910;DHT22;24676;51.360;12.354;2022-08-01T03:34:41;19.70;99.90
38910;DHT22;24676;51.360;12.354;2022-08-01T03:37:26;19.70;99.90
38910;DHT22;24676;51.360;12.354;2022-08-01T03:40:13;19.70;99.90
38910;DHT22;24676;51.360;12.354;2022-08-01T03:42:59;19.70;99.90
38910;DHT22;24676;51.360;12.354;2022-08-01T03:45:48;19.60;99.90
38910;DHT22;24676;51.360;12.354;2022-08-01T03:48:35;19.70;99.90
38910;DHT22;24676;51.360;12.354;2022-08-01T03:51:20;19.70;99.90
38910;DHT22;24676;51.360;12.354;2022-08-01T03:54:05;19.70;99.90
38910;DHT22;24676;51.360;12.354;2022-08-01T03:56:51;19.70;99.90
38910;DHT22;24676;51.360;12.354;2022-08-01T03:59:35;19.70;99.90
38910;DHT22;24676;51.360;12.354;2022-08-01T04:02:21;19.80;99.90
38910;DHT22;24676;51.360;12.354;2022-08-01T04:05:05;19.80;99.90
38910;DHT22;24676;51.360;12.354;2022-08-01T04:07:50;19.80;99.90
38910;DHT22;24676;51.360;12.354;2022-08-01T04:10:39;19.80;99.90
38910;DHT22;24676;51.360;12.354;2022-08-01T04:13:23;19.80;99.90
38910;DHT22;24676;51.360;12.354;2022-08-01T04:16:08;19.80;99.90
38910;DHT22;24676;51.360;12.354;2022-08-01T04:18:52;19.90;99.90
38910;DHT22;24676;51.360;12.354;2022-08-01T04:21:36;19.90;99.90
38910;DHT22;24676;51.360;12.354;2022-08-01T04:24:20;19.90;99.90
38910;DHT22;24676;51.360;12.354;2022-08-01T04:27:09;20.00;99.90
38910;DHT22;24676;51.360;12.354;2022-08-01T04:29:57;20.00;99.90
38910;DHT22;24676;51.360;12.354;2022-08-01T04:32:45;20.10;99.90
38910;DHT22;24676;51.360;12.354;2022-08-01T04:35:30;20.10;99.90
38910;DHT22;24676;51.360;12.354;2022-08-01T04:38:20;20.10;99.90
38910;DHT22;24676;51.360;12.354;2022-08-01T04:41:06;20.10;99.90
38910;DHT22;24676;51.360;12.354;2022-08-01T04:43:51;20.10;99.90
38910;DHT22;24676;51.360;12.354;2022-08-01T04:46:36;20.10;99.90
38910;DHT22;24676;51.360;12.354;2022-08-01T04:49:21;20.10;99.90
38910;DHT22;24676;51.360;12.354;2022-08-01T04:52:06;20.10;99.90
38910;DHT22;24676;51.360;12.354;2022-08-01T04:54:50;20.10;99.90
38910;DHT22;24676;51.360;12.354;2022-08-01T04:57:36;20.10;99.90
38910;DHT22;24676;51.360;12.354;2022-08-01T05:00:21;20.10;99.90
38910;DHT22;24676;51.360;12.354;2022-08-01T05:03:05;20.20;99.90
38910;DHT22;24676;51.360;12.354;2022-08-01T05:05:49;20.30;99.90
38910;DHT22;24676;51.360;12.354;2022-08-01T05:08:34;20.30;99.90
38910;DHT22;24676;51.360;12.354;2022-08-01T05:11:19;20.40;99.90
38910;DHT22;24676;51.360;12.354;2022-08-01T05:14:05;20.40;99.90
38910;DHT22;24676;51.360;12.354;2022-08-01T05:16:51;20.60;99.90
38910;DHT22;24676;51.360;12.354;2022-08-01T05:19:36;20.70;99.90
38910;DHT22;24676;51.360;12.354;2022-08-01T05:22:20;20.90;99.90
38910;DHT22;24676;51.360;12.354;2022-08-01T05:25:06;21.00;99.90
38910;DHT22;24676;51.360;12.354;2022-08-01T05:27:50;21.10;99.90
38910;DHT22;24676;51.360;12.354;2022-08-01T05:30:35;21.20;99.90
38910;DHT22;24676;51.360;12.354;2022-08-01T05:33:19;21.30;99.90
38910;DHT22;24676;51.360;12.354;2022-08-01T05:36:05;21.50;99.90
38910;DHT22;24676;51.360;12.354;2022-08-01T05:38:48;21.80;99.90
38910;DHT22;24676;51.360;12.354;2022-08-01T05:41:32;22.20;99.90
38910;DHT22;24676;51.360;12.354;2022-08-01T05:44:17;23.20;99.90
38910;DHT22;24676;51.360;12.354;2022-08-01T05:47:01;25.40;99.90
38910;DHT22;24676;51.360;12.354;2022-08-01T05:49:46;26.00;99.90
38910;DHT22;24676;51.360;12.354;2022-08-01T05:52:30;26.00;99.90
38910;DHT22;24676;51.360;12.354;2022-08-01T05:55:14;26.50;99.90
38910;DHT22;24676;51.360;12.354;2022-08-01T05:57:59;26.30;99.90
38910;DHT22;24676;51.360;12.354;2022-08-01T06:00:42;26.20;99.90
38910;DHT22;24676;51.360;12.354;2022-08-01T06:03:27;25.90;99.90
38910;DHT22;24676;51.360;12.354;2022-08-01T06:06:15;25.30;99.90
38910;DHT22;24676;51.360;12.354;2022-08-01T06:08:59;24.70;99.90
38910;DHT22;24676;51.360;12.354;2022-08-01T06:11:43;24.40;99.90
38910;DHT22;24676;51.360;12.354;2022-08-01T06:14:27;24.10;99.90
38910;DHT22;24676;51.360;12.354;2022-08-01T06:17:12;24.10;99.90
38910;DHT22;24676;51.360;12.354;2022-08-01T06:19:56;24.00;99.90
38910;DHT22;24676;51.360;12.354;2022-08-01T06:22:40;23.90;99.90
38910;DHT22;24676;51.360;12.354;2022-08-01T06:25:25;23.80;99.90
38910;DHT22;24676;51.360;12.354;2022-08-01T06:28:09;23.60;99.90
38910;DHT22;24676;51.360;12.354;2022-08-01T06:30:54;23.40;99.90
38910;DHT22;24676;51.360;12.354;2022-08-01T06:33:38;23.30;99.90
38910;DHT22;24676;51.360;12.354;2022-08-01T06:36:23;23.10;99.90
38910;DHT22;24676;51.360;12.354;2022-08-01T06:39:07;23.00;99.90
38910;DHT22;24676;51.360;12.354;2022-08-01T06:41:51;23.00;99.90
38910;DHT22;24676;51.360;12.354;2022-08-01T06:44:35;23.10;99.90
38910;DHT22;24676;51.360;12.354;2022-08-01T06:47:19;23.00;99.90
38910;DHT22;24676;51.360;12.354;2022-08-01T06:50:06;23.00;99.90
38910;DHT22;24676;51.360;12.354;2022-08-01T06:52:50;23.20;99.90
38910;DHT22;24676;51.360;12.354;2022-08-01T06:55:34;23.50;99.90
38910;DHT22;24676;51.360;12.354;2022-08-01T06:58:19;23.80;99.90
38910;DHT22;24676;51.360;12.354;2022-08-01T07:01:04;24.30;99.90
38910;DHT22;24676;51.360;12.354;2022-08-01T07:03:50;24.30;99.90
38910;DHT22;24676;51.360;12.354;2022-08-01T07:06:34;24.30;99.90
38910;DHT22;24676;51.360;12.354;2022-08-01T07:09:18;24.20;99.90
38910;DHT22;24676;51.360;12.354;2022-08-01T07:12:03;24.10;99.90
38910;DHT22;24676;51.360;12.354;2022-08-01T07:14:47;23.90;99.90
38910;DHT22;24676;51.360;12.354;2022-08-01T07:17:32;23.60;99.90
38910;DHT22;24676;51.360;12.354;2022-08-01T07:20:16;23.50;99.90
38910;DHT22;24676;51.360;12.354;2022-08-01T07:23:00;23.60;99.90
38910;DHT22;24676;51.360;12.354;2022-08-01T07:25:45;24.10;99.90
38910;DHT22;24676;51.360;12.354;2022-08-01T07:28:30;24.70;99.90
38910;DHT22;24676;51.360;12.354;2022-08-01T07:31:14;25.30;99.90
38910;DHT22;24676;51.360;12.354;2022-08-01T07:33:58;25.50;99.90
38910;DHT22;24676;51.360;12.354;2022-08-01T07:36:45;25.30;99.90
38910;DHT22;24676;51.360;12.354;2022-08-01T07:39:30;25.00;99.90
38910;DHT22;24676;51.360;12.354;2022-08-01T07:42:14;24.60;99.90
38910;DHT22;24676;51.360;12.354;2022-08-01T07:44:58;24.30;99.90
38910;DHT22;24676;51.360;12.354;2022-08-01T07:47:42;23.80;99.90
38910;DHT22;24676;51.360;12.354;2022-08-01T07:50:27;23.30;99.90
38910;DHT22;24676;51.360;12.354;2022-08-01T07:53:11;22.70;99.90
38910;DHT22;24676;51.360;12.354;2022-08-01T07:55:55;22.20;99.90
38910;DHT22;24676;51.360;12.354;2022-08-01T07:58:39;22.00;99.90
38910;DHT22;24676;51.360;12.354;2022-08-01T08:01:23;21.90;99.90
38910;DHT22;24676;51.360;12.354;2022-08-01T08:04:07;22.00;99.90
38910;DHT22;24676;51.360;12.354;2022-08-01T08:06:52;22.20;99.90
38910;DHT22;24676;51.360;12.354;2022-08-01T08:09:37;22.90;99.90
38910;DHT22;24676;51.360;12.354;2022-08-01T08:12:21;24.60;99.90
38910;DHT22;24676;51.360;12.354;2022-08-01T08:15:06;25.90;99.90
38910;DHT22;24676;51.360;12.354;2022-08-01T08:17:50;27.30;99.90
38910;DHT22;24676;51.360;12.354;2022-08-01T08:20:34;29.00;99.90
38910;DHT22;24676;51.360;12.354;2022-08-01T08:23:18;32.40;85.70
38910;DHT22;24676;51.360;12.354;2022-08-01T08:26:21;33.80;68.60
38910;DHT22;24676;51.360;12.354;2022-08-01T08:29:06;33.40;60.00
38910;DHT22;24676;51.360;12.354;2022-08-01T08:31:52;32.00;64.20
38910;DHT22;24676;51.360;12.354;2022-08-01T08:34:36;30.30;67.00
38910;DHT22;24676;51.360;12.354;2022-08-01T08:37:20;29.40;77.10
38910;DHT22;24676;51.360;12.354;2022-08-01T08:40:04;28.90;77.60
38910;DHT22;24676;51.360;12.354;2022-08-01T08:42:50;28.50;87.40
38910;DHT22;24676;51.360;12.354;2022-08-01T08:45:35;28.40;81.90
38910;DHT22;24676;51.360;12.354;2022-08-01T08:48:19;28.50;78.40
38910;DHT22;24676;51.360;12.354;2022-08-01T08:51:03;28.10;81.90
38910;DHT22;24676;51.360;12.354;2022-08-01T08:53:48;27.60;85.50
38910;DHT22;24676;51.360;12.354;2022-08-01T08:56:32;27.20;88.30
38910;DHT22;24676;51.360;12.354;2022-08-01T08:59:17;27.10;91.70
38910;DHT22;24676;51.360;12.354;2022-08-01T09:02:02;27.40;90.70
38910;DHT22;24676;51.360;12.354;2022-08-01T09:04:49;27.60;90.40
38910;DHT22;24676;51.360;12.354;2022-08-01T09:07:33;27.80;88.10
38910;DHT22;24676;51.360;12.354;2022-08-01T09:10:17;28.00;86.30
38910;DHT22;24676;51.360;12.354;2022-08-01T09:15:50;27.30;86.40
38910;DHT22;24676;51.360;12.354;2022-08-01T09:18:35;27.50;89.20
38910;DHT22;24676;51.360;12.354;2022-08-01T09:21:20;27.80;84.50
38910;DHT22;24676;51.360;12.354;2022-08-01T09:24:15;27.60;81.90
38910;DHT22;24676;51.360;12.354;2022-08-01T09:26:59;28.00;80.30
38910;DHT22;24676;51.360;12.354;2022-08-01T09:29:45;28.60;79.40
38910;DHT22;24676;51.360;12.354;2022-08-01T09:32:29;29.30;76.20
38910;DHT22;24676;51.360;12.354;2022-08-01T09:35:40;29.50;69.20
38910;DHT22;24676;51.360;12.354;2022-08-01T09:38:28;29.00;69.20
38910;DHT22;24676;51.360;12.354;2022-08-01T09:41:12;28.40;74.70
38910;DHT22;24676;51.360;12.354;2022-08-01T09:43:57;27.80;75.40
38910;DHT22;24676;51.360;12.354;2022-08-01T09:46:51;27.40;77.00
38910;DHT22;24676;51.360;12.354;2022-08-01T09:49:36;27.20;79.00
38910;DHT22;24676;51.360;12.354;2022-08-01T09:52:21;27.20;78.50
38910;DHT22;24676;51.360;12.354;2022-08-01T09:55:06;27.60;77.60
38910;DHT22;24676;51.360;12.354;2022-08-01T09:57:56;28.20;78.60
38910;DHT22;24676;51.360;12.354;2022-08-01T10:00:44;28.50;73.70
38910;DHT22;24676;51.360;12.354;2022-08-01T10:03:41;28.10;73.50
38910;DHT22;24676;51.360;12.354;2022-08-01T10:06:25;27.80;74.40
38910;DHT22;24676;51.360;12.354;2022-08-01T10:09:10;27.60;76.60
38910;DHT22;24676;51.360;12.354;2022-08-01T10:11:55;27.40;79.00
38910;DHT22;24676;51.360;12.354;2022-08-01T10:14:40;27.20;77.30
38910;DHT22;24676;51.360;12.354;2022-08-01T10:17:24;27.90;76.10
38910;DHT22;24676;51.360;12.354;2022-08-01T10:20:09;29.00;71.50
38910;DHT22;24676;51.360;12.354;2022-08-01T10:22:54;29.70;66.60
38910;DHT22;24676;51.360;12.354;2022-08-01T10:25:40;30.70;62.30
38910;DHT22;24676;51.360;12.354;2022-08-01T10:28:25;31.80;58.00
38910;DHT22;24676;51.360;12.354;2022-08-01T10:31:09;32.20;56.20
38910;DHT22;24676;51.360;12.354;2022-08-01T10:33:57;33.30;52.60
38910;DHT22;24676;51.360;12.354;2022-08-01T10:36:42;34.70;49.90
38910;DHT22;24676;51.360;12.354;2022-08-01T10:39:26;35.70;47.10
38910;DHT22;24676;51.360;12.354;2022-08-01T10:42:13;34.50;45.20
38910;DHT22;24676;51.360;12.354;2022-08-01T10:44:58;33.30;46.80
38910;DHT22;24676;51.360;12.354;2022-08-01T10:47:53;32.80;47.90
38910;DHT22;24676;51.360;12.354;2022-08-01T10:50:46;32.60;48.20
38910;DHT22;24676;51.360;12.354;2022-08-01T10:53:32;33.20;47.70
38910;DHT22;24676;51.360;12.354;2022-08-01T10:56:17;33.20;47.30
38910;DHT22;24676;51.360;12.354;2022-08-01T10:59:02;33.00;46.90
38910;DHT22;24676;51.360;12.354;2022-08-01T11:02:03;32.50;47.60
38910;DHT22;24676;51.360;12.354;2022-08-01T11:07:38;30.90;49.90
38910;DHT22;24676;51.360;12.354;2022-08-01T11:10:42;30.50;50.70
38910;DHT22;24676;51.360;12.354;2022-08-01T11:14:00;30.20;50.60
38910;DHT22;24676;51.360;12.354;2022-08-01T11:16:39;31.00;50.70
38910;DHT22;24676;51.360;12.354;2022-08-01T11:19:24;31.10;50.00
38910;DHT22;24676;51.360;12.354;2022-08-01T11:22:08;31.80;48.80
38910;DHT22;24676;51.360;12.354;2022-08-01T11:24:56;33.00;46.30
38910;DHT22;24676;51.360;12.354;2022-08-01T11:27:43;33.60;45.90
38910;DHT22;24676;51.360;12.354;2022-08-01T11:30:27;33.70;45.20
38910;DHT22;24676;51.360;12.354;2022-08-01T11:33:15;33.90;44.50
38910;DHT22;24676;51.360;12.354;2022-08-01T11:41:48;33.30;46.60
38910;DHT22;24676;51.360;12.354;2022-08-01T11:44:50;33.90;44.60
38910;DHT22;24676;51.360;12.354;2022-08-01T11:53:13;32.90;46.30
38910;DHT22;24676;51.360;12.354;2022-08-01T11:56:00;33.20;47.50
38910;DHT22;24676;51.360;12.354;2022-08-01T11:58:45;34.30;47.70
38910;DHT22;24676;51.360;12.354;2022-08-01T12:01:29;35.70;44.70
38910;DHT22;24676;51.360;12.354;2022-08-01T12:04:13;36.70;43.20
38910;DHT22;24676;51.360;12.354;2022-08-01T12:07:11;37.80;41.10
38910;DHT22;24676;51.360;12.354;2022-08-01T12:10:03;38.70;39.00
38910;DHT22;24676;51.360;12.354;2022-08-01T12:12:54;39.20;38.40
38910;DHT22;24676;51.360;12.354;2022-08-01T12:15:39;38.90;37.00
38910;DHT22;24676;51.360;12.354;2022-08-01T12:18:23;38.70;36.60
38910;DHT22;24676;51.360;12.354;2022-08-01T12:21:07;38.10;36.80
38910;DHT22;24676;51.360;12.354;2022-08-01T12:24:02;36.60;38.50
38910;DHT22;24676;51.360;12.354;2022-08-01T12:26:46;34.80;41.00
38910;DHT22;24676;51.360;12.354;2022-08-01T12:29:34;33.50;44.20
38910;DHT22;24676;51.360;12.354;2022-08-01T12:35:09;31.70;47.50
38910;DHT22;24676;51.360;12.354;2022-08-01T12:37:55;31.30;49.10
38910;DHT22;24676;51.360;12.354;2022-08-01T12:40:40;31.50;48.70
38910;DHT22;24676;51.360;12.354;2022-08-01T12:43:25;32.20;47.10
38910;DHT22;24676;51.360;12.354;2022-08-01T12:46:09;32.40;46.80
38910;DHT22;24676;51.360;12.354;2022-08-01T12:48:59;32.70;45.80
38910;DHT22;24676;51.360;12.354;2022-08-01T12:51:43;32.80;45.30
38910;DHT22;24676;51.360;12.354;2022-08-01T12:54:27;32.40;46.80
38910;DHT22;24676;51.360;12.354;2022-08-01T12:57:30;32.90;46.90
38910;DHT22;24676;51.360;12.354;2022-08-01T13:00:25;33.80;45.30
38910;DHT22;24676;51.360;12.354;2022-08-01T13:03:18;34.60;43.30
38910;DHT22;24676;51.360;12.354;2022-08-01T13:06:09;34.70;42.60
38910;DHT22;24676;51.360;12.354;2022-08-01T13:08:53;33.70;43.80
38910;DHT22;24676;51.360;12.354;2022-08-01T13:11:37;32.40;45.30
38910;DHT22;24676;51.360;12.354;2022-08-01T13:14:28;31.40;47.00
38910;DHT22;24676;51.360;12.354;2022-08-01T13:17:27;30.90;48.10
38910;DHT22;24676;51.360;12.354;2022-08-01T13:20:32;30.40;50.30
38910;DHT22;24676;51.360;12.354;2022-08-01T13:23:17;30.10;50.50
38910;DHT22;24676;51.360;12.354;2022-08-01T13:26:01;29.80;52.10
38910;DHT22;24676;51.360;12.354;2022-08-01T13:28:46;29.70;52.50
38910;DHT22;24676;51.360;12.354;2022-08-01T13:31:33;29.80;52.50
38910;DHT22;24676;51.360;12.354;2022-08-01T13:34:17;29.90;51.80
38910;DHT22;24676;51.360;12.354;2022-08-01T13:37:02;29.90;51.70
38910;DHT22;24676;51.360;12.354;2022-08-01T13:39:46;29.80;51.20
38910;DHT22;24676;51.360;12.354;2022-08-01T13:42:31;29.40;51.60
38910;DHT22;24676;51.360;12.354;2022-08-01T13:45:15;28.90;52.80
38910;DHT22;24676;51.360;12.354;2022-08-01T13:47:59;28.60;53.80
38910;DHT22;24676;51.360;12.354;2022-08-01T13:50:44;28.60;55.70
38910;DHT22;24676;51.360;12.354;2022-08-01T13:53:28;28.50;54.20
38910;DHT22;24676;51.360;12.354;2022-08-01T13:56:12;28.40;53.90
38910;DHT22;24676;51.360;12.354;2022-08-01T13:58:56;28.20;54.60
38910;DHT22;24676;51.360;12.354;2022-08-01T14:01:41;28.00;54.60
38910;DHT22;24676;51.360;12.354;2022-08-01T14:04:25;28.00;54.40
38910;DHT22;24676;51.360;12.354;2022-08-01T14:07:10;28.00;53.70
38910;DHT22;24676;51.360;12.354;2022-08-01T14:09:54;28.10;53.60
38910;DHT22;24676;51.360;12.354;2022-08-01T14:12:38;28.30;53.30
38910;DHT22;24676;51.360;12.354;2022-08-01T14:15:24;28.50;52.90
38910;DHT22;24676;51.360;12.354;2022-08-01T14:18:09;28.80;52.90
38910;DHT22;24676;51.360;12.354;2022-08-01T14:20:53;28.90;53.80
38910;DHT22;24676;51.360;12.354;2022-08-01T14:23:38;28.70;53.30
38910;DHT22;24676;51.360;12.354;2022-08-01T14:26:22;28.50;54.50
38910;DHT22;24676;51.360;12.354;2022-08-01T14:29:06;28.40;54.20
38910;DHT22;24676;51.360;12.354;2022-08-01T14:31:51;28.50;54.40
38910;DHT22;24676;51.360;12.354;2022-08-01T14:34:35;28.40;54.40
38910;DHT22;24676;51.360;12.354;2022-08-01T14:37:19;28.30;54.50
38910;DHT22;24676;51.360;12.354;2022-08-01T14:40:05;28.00;54.70
38910;DHT22;24676;51.360;12.354;2022-08-01T14:42:52;28.00;54.80
38910;DHT22;24676;51.360;12.354;2022-08-01T14:45:37;27.80;54.60
38910;DHT22;24676;51.360;12.354;2022-08-01T14:48:21;27.70;54.20
38910;DHT22;24676;51.360;12.354;2022-08-01T14:51:05;27.70;54.60
38910;DHT22;24676;51.360;12.354;2022-08-01T14:53:51;27.60;55.00
38910;DHT22;24676;51.360;12.354;2022-08-01T14:56:35;27.50;54.80
38910;DHT22;24676;51.360;12.354;2022-08-01T14:59:19;27.40;54.80
38910;DHT22;24676;51.360;12.354;2022-08-01T15:02:04;27.40;55.10
38910;DHT22;24676;51.360;12.354;2022-08-01T15:04:48;27.40;54.70
38910;DHT22;24676;51.360;12.354;2022-08-01T15:07:33;27.40;55.20
38910;DHT22;24676;51.360;12.354;2022-08-01T15:10:17;27.40;54.60
38910;DHT22;24676;51.360;12.354;2022-08-01T15:13:01;27.40;55.60
38910;DHT22;24676;51.360;12.354;2022-08-01T15:15:46;27.30;55.60
38910;DHT22;24676;51.360;12.354;2022-08-01T15:18:30;27.20;56.20
38910;DHT22;24676;51.360;12.354;2022-08-01T15:21:17;27.10;56.40
38910;DHT22;24676;51.360;12.354;2022-08-01T15:24:02;27.00;56.60
38910;DHT22;24676;51.360;12.354;2022-08-01T15:26:46;26.80;57.80
38910;DHT22;24676;51.360;12.354;2022-08-01T15:29:30;26.70;58.10
38910;DHT22;24676;51.360;12.354;2022-08-01T15:32:15;26.70;57.70
38910;DHT22;24676;51.360;12.354;2022-08-01T15:34:59;26.80;57.40
38910;DHT22;24676;51.360;12.354;2022-08-01T15:37:44;26.80;57.50
38910;DHT22;24676;51.360;12.354;2022-08-01T15:40:28;26.80;57.10
38910;DHT22;24676;51.360;12.354;2022-08-01T15:43:12;26.80;57.50
38910;DHT22;24676;51.360;12.354;2022-08-01T15:45:57;26.70;57.30
38910;DHT22;24676;51.360;12.354;2022-08-01T15:48:40;26.70;56.50
38910;DHT22;24676;51.360;12.354;2022-08-01T15:51:25;26.60;57.00
38910;DHT22;24676;51.360;12.354;2022-08-01T15:54:09;26.60;57.00
38910;DHT22;24676;51.360;12.354;2022-08-01T15:56:53;26.50;57.20
38910;DHT22;24676;51.360;12.354;2022-08-01T15:59:37;26.50;57.30
38910;DHT22;24676;51.360;12.354;2022-08-01T16:02:22;26.50;57.50
38910;DHT22;24676;51.360;12.354;2022-08-01T16:05:06;26.50;57.60
38910;DHT22;24676;51.360;12.354;2022-08-01T16:07:51;26.50;58.00
38910;DHT22;24676;51.360;12.354;2022-08-01T16:10:35;26.40;58.20
38910;DHT22;24676;51.360;12.354;2022-08-01T16:13:19;26.40;58.10
38910;DHT22;24676;51.360;12.354;2022-08-01T16:16:03;26.30;57.90
38910;DHT22;24676;51.360;12.354;2022-08-01T16:18:48;26.30;57.20
38910;DHT22;24676;51.360;12.354;2022-08-01T16:21:32;26.30;57.30
38910;DHT22;24676;51.360;12.354;2022-08-01T16:24:16;26.30;57.20
38910;DHT22;24676;51.360;12.354;2022-08-01T16:27:00;26.30;57.50
38910;DHT22;24676;51.360;12.354;2022-08-01T16:29:45;26.20;57.60
38910;DHT22;24676;51.360;12.354;2022-08-01T16:32:29;26.20;57.90
38910;DHT22;24676;51.360;12.354;2022-08-01T16:35:13;26.10;57.40
38910;DHT22;24676;51.360;12.354;2022-08-01T16:37:57;26.10;57.60
38910;DHT22;24676;51.360;12.354;2022-08-01T16:40:42;26.10;57.50
38910;DHT22;24676;51.360;12.354;2022-08-01T16:43:26;26.20;57.70
38910;DHT22;24676;51.360;12.354;2022-08-01T16:46:11;26.10;57.60
38910;DHT22;24676;51.360;12.354;2022-08-01T16:48:55;26.10;58.30
38910;DHT22;24676;51.360;12.354;2022-08-01T16:51:39;26.10;58.20
38910;DHT22;24676;51.360;12.354;2022-08-01T16:54:23;26.10;58.40
38910;DHT22;24676;51.360;12.354;2022-08-01T16:57:07;25.90;58.40
38910;DHT22;24676;51.360;12.354;2022-08-01T16:59:52;25.80;58.80
38910;DHT22;24676;51.360;12.354;2022-08-01T17:02:36;25.70;58.50
38910;DHT22;24676;51.360;12.354;2022-08-01T17:05:20;25.60;59.20
38910;DHT22;24676;51.360;12.354;2022-08-01T17:08:06;25.60;59.20
38910;DHT22;24676;51.360;12.354;2022-08-01T17:10:51;25.50;59.00
38910;DHT22;24676;51.360;12.354;2022-08-01T17:13:36;25.50;59.40
38910;DHT22;24676;51.360;12.354;2022-08-01T17:16:20;25.40;60.20
38910;DHT22;24676;51.360;12.354;2022-08-01T17:19:04;25.30;61.20
38910;DHT22;24676;51.360;12.354;2022-08-01T17:21:49;25.30;61.90
38910;DHT22;24676;51.360;12.354;2022-08-01T17:24:33;25.20;62.80
38910;DHT22;24676;51.360;12.354;2022-08-01T17:27:17;25.20;63.00
38910;DHT22;24676;51.360;12.354;2022-08-01T17:30:02;25.10;62.80
38910;DHT22;24676;51.360;12.354;2022-08-01T17:32:47;25.00;63.00
38910;DHT22;24676;51.360;12.354;2022-08-01T17:35:31;24.90;63.20
38910;DHT22;24676;51.360;12.354;2022-08-01T17:38:15;24.80;63.90